Time;durP1;ratioP1;P1;durP2;ratioP2;P2;SDS_P1;SDS_P2;PMS_P1;PMS_P2;Temp;Humidity;BMP_temperature;BMP_pressure;BME280_temperature;BME280_humidity;BME280_pressure;Samples;Min_cycle;Max_cycle;Signal;HPM_P1;HPM_P2
2022/03/25 08:14:52;;;;;;;27.45;21.30;;;13.60;69.60;;;;;;2299682;62;30200;-77
2022/03/25 08:17:20;;;;;;;30.40;21.52;;;13.60;68.40;;;;;;2291442;62;30283;-78
2022/03/25 08:19:46;;;;;;;27.98;21.23;;;13.60;69.40;;;;;;2291212;62;30221;-79
2022/03/25 08:22:12;;;;;;;27.67;21.23;;;13.70;70.10;;;;;;2283405;62;30321;-78
2022/03/25 08:30:08;;;;;;;29.63;20.92;;;13.80;71.70;;;;;;2290659;62;30074;-72
2022/03/25 08:32:33;;;;;;;24.63;20.83;;;13.80;71.30;;;;;;2291020;62;30315;-73
2022/03/25 08:35:02;;;;;;;30.98;21.30;;;13.80;71.60;;;;;;2283492;62;30216;-72
2022/03/25 08:37:28;;;;;;;25.40;20.85;;;13.80;71.70;;;;;;2290834;62;30050;-76
2022/03/25 08:39:54;;;;;;;33.75;20.60;;;13.80;71.70;;;;;;2291115;62;30344;-76
2022/03/25 08:42:20;;;;;;;23.95;19.42;;;13.80;72.10;;;;;;2291006;62;30420;-77
2022/03/25 08:44:46;;;;;;;23.27;18.15;;;13.90;72.30;;;;;;2290844;62;30634;-77
2022/03/25 08:47:12;;;;;;;25.52;18.73;;;13.90;72.40;;;;;;2276825;62;30467;-77
2022/03/25 08:49:38;;;;;;;23.15;18.55;;;13.90;72.50;;;;;;2283191;62;30083;-77
2022/03/25 08:52:04;;;;;;;25.02;18.05;;;14.00;72.50;;;;;;2290159;62;32090;-77
2022/03/25 08:54:30;;;;;;;22.90;18.27;;;14.00;72.60;;;;;;2283216;62;30126;-76
2022/03/25 08:56:57;;;;;;;20.15;17.02;;;14.00;72.60;;;;;;2290580;62;30858;-76
2022/03/25 08:59:23;;;;;;;23.35;17.38;;;14.10;72.60;;;;;;2290747;62;30131;-77
2022/03/25 09:01:49;;;;;;;21.13;17.45;;;14.10;72.50;;;;;;2290871;62;30954;-77
2022/03/25 09:04:27;;;;;;;21.98;17.23;;;14.10;72.50;;;;;;2283489;62;31552;-76
2022/03/25 09:06:53;;;;;;;20.67;16.92;;;14.20;72.20;;;;;;2290964;62;30148;-77
2022/03/25 09:09:19;;;;;;;21.48;17.27;;;14.20;72.50;;;;;;2290977;62;30163;-77
2022/03/25 09:11:45;;;;;;;21.63;16.80;;;14.20;72.50;;;;;;2290655;62;31435;-77
2022/03/25 09:14:11;;;;;;;18.95;15.98;;;14.20;72.40;;;;;;2290813;62;30152;-77
2022/03/25 09:16:37;;;;;;;20.13;16.45;;;14.30;72.40;;;;;;2290875;62;30215;-77
2022/03/25 09:19:05;;;;;;;20.02;15.57;;;14.30;72.40;;;;;;2290339;62;30431;-77
2022/03/25 09:21:31;;;;;;;22.30;16.60;;;14.30;72.30;;;;;;2290851;62;30167;-77
2022/03/25 09:23:57;;;;;;;18.35;15.88;;;14.30;72.20;;;;;;2290741;62;30507;-77
2022/03/25 09:26:25;;;;;;;18.05;15.15;;;14.30;72.30;;;;;;2284815;62;30529;-77
2022/03/25 09:28:51;;;;;;;19.42;15.20;;;14.40;72.30;;;;;;2278114;62;30160;-76
2022/03/25 09:31:17;;;;;;;18.00;14.90;;;14.40;72.20;;;;;;2271096;62;31252;-77
2022/03/25 09:33:43;;;;;;;16.42;13.93;;;14.40;72.20;;;;;;2284880;62;31839;-77
2022/03/25 09:36:09;;;;;;;18.58;14.95;;;14.40;72.10;;;;;;2285258;62;30052;-77
2022/03/25 09:38:35;;;;;;;16.73;14.38;;;14.40;72.10;;;;;;2285370;62;30255;-77
2022/03/25 09:41:05;;;;;;;16.40;14.13;;;14.40;72.00;;;;;;2285010;62;30158;-77
2022/03/25 09:43:34;;;;;;;18.67;14.35;;;14.40;72.10;;;;;;2278273;62;30109;-77
2022/03/25 09:46:03;;;;;;;16.23;14.23;;;14.50;72.10;;;;;;2284896;62;30414;-77
2022/03/25 09:48:29;;;;;;;16.35;13.15;;;14.50;72.10;;;;;;2285217;62;30249;-77
2022/03/25 09:50:55;;;;;;;16.00;13.15;;;14.50;72.10;;;;;;2285143;62;30185;-77
2022/03/25 09:53:21;;;;;;;15.52;12.82;;;14.50;72.10;;;;;;2284879;62;30377;-77
2022/03/25 09:55:48;;;;;;;14.15;12.70;;;14.50;72.00;;;;;;2270986;62;30198;-77
2022/03/25 09:58:22;;;;;;;14.65;12.48;;;14.50;72.00;;;;;;2285166;62;30457;-77
2022/03/25 10:00:52;;;;;;;15.75;13.02;;;14.50;72.00;;;;;;2278079;62;30091;-77
2022/03/25 10:03:36;;;;;;;14.60;12.23;;;14.50;71.90;;;;;;2271049;62;30908;-77
2022/03/25 10:06:02;;;;;;;16.20;12.35;;;14.60;71.70;;;;;;2285195;62;30225;-77
2022/03/25 10:08:29;;;;;;;14.38;12.43;;;14.50;71.90;;;;;;2277470;62;30203;-77
2022/03/25 10:10:55;;;;;;;13.55;11.55;;;14.60;71.90;;;;;;2277773;62;30967;-78
2022/03/25 10:13:21;;;;;;;13.70;11.30;;;14.60;71.90;;;;;;2284906;62;30785;-77
2022/03/25 10:15:47;;;;;;;13.13;10.88;;;14.60;71.80;;;;;;2277500;62;30129;-77
2022/03/25 10:18:13;;;;;;;12.48;11.18;;;14.60;71.80;;;;;;2277718;62;30247;-77
2022/03/25 10:20:42;;;;;;;12.68;11.10;;;14.60;71.80;;;;;;2285066;62;30967;-77
2022/03/25 10:23:12;;;;;;;11.90;10.65;;;14.60;71.80;;;;;;2277470;62;30368;-77
2022/03/25 10:25:51;;;;;;;11.50;10.25;;;14.70;71.70;;;;;;2284943;62;30264;-76
2022/03/25 10:28:40;;;;;;;13.23;10.35;;;14.60;71.70;;;;;;2284805;62;30139;-77
2022/03/25 10:31:18;;;;;;;12.13;10.48;;;14.70;71.60;;;;;;2284989;62;30157;-77
2022/03/25 10:33:54;;;;;;;11.45;10.32;;;14.70;71.60;;;;;;2284939;62;31593;-76
2022/03/25 10:36:23;;;;;;;12.35;10.07;;;14.70;71.50;;;;;;2270516;62;30977;-77
2022/03/25 10:39:00;;;;;;;12.85;10.05;;;14.80;71.60;;;;;;2277765;62;29935;-77
2022/03/25 10:41:41;;;;;;;9.98;8.95;;;14.80;71.60;;;;;;2277722;62;30097;-77
2022/03/25 10:44:08;;;;;;;12.18;9.80;;;14.80;71.50;;;;;;2277370;62;30669;-77
2022/03/25 10:46:39;;;;;;;10.55;9.45;;;14.90;71.60;;;;;;2284961;62;30244;-77
2022/03/25 10:49:06;;;;;;;10.43;9.33;;;14.90;71.50;;;;;;2285163;62;30066;-77
2022/03/25 10:51:36;;;;;;;10.13;8.63;;;14.90;71.50;;;;;;2284803;62;31128;-77
2022/03/25 10:54:07;;;;;;;11.90;9.25;;;14.90;71.40;;;;;;2284558;62;30665;-77
2022/03/25 10:56:45;;;;;;;11.43;9.25;;;14.90;71.40;;;;;;2284804;62;30456;-77
2022/03/25 10:59:26;;;;;;;9.65;8.75;;;15.00;71.40;;;;;;2284919;62;30249;-77
2022/03/25 11:01:54;;;;;;;11.00;8.90;;;15.00;71.30;;;;;;2283514;62;30849;-77
2022/03/25 11:04:20;;;;;;;9.38;7.72;;;15.00;71.30;;;;;;2270330;62;32038;-77
2022/03/25 11:06:46;;;;;;;9.50;8.52;;;15.10;71.40;;;;;;2270299;62;30500;-77
2022/03/25 11:09:13;;;;;;;9.48;8.05;;;15.10;71.30;;;;;;2284822;62;30144;-77
2022/03/25 11:11:43;;;;;;;8.48;7.70;;;15.10;71.30;;;;;;2271016;62;30334;-78
2022/03/25 11:14:09;;;;;;;9.75;7.82;;;15.20;71.20;;;;;;2285022;62;30343;-77
2022/03/25 11:16:43;;;;;;;8.52;7.60;;;15.20;71.20;;;;;;2270904;62;30301;-77
2022/03/25 11:19:10;;;;;;;9.60;8.02;;;15.20;71.10;;;;;;2270733;62;30126;-77
2022/03/25 11:21:42;;;;;;;7.72;7.03;;;15.30;71.20;;;;;;2277563;62;30207;-77
2022/03/25 11:24:30;;;;;;;8.07;7.28;;;15.30;71.10;;;;;;2277532;62;30748;-77
2022/03/25 11:26:56;;;;;;;8.45;7.35;;;15.40;71.10;;;;;;2284989;62;30657;-77
2022/03/25 11:29:26;;;;;;;8.48;7.38;;;15.40;71.00;;;;;;2270731;62;30071;-77
2022/03/25 11:32:12;;;;;;;7.07;6.38;;;15.40;70.90;;;;;;2277402;62;30845;-77
2022/03/25 11:34:45;;;;;;;7.95;7.15;;;15.50;70.80;;;;;;2271054;62;31570;-77
2022/03/25 11:37:25;;;;;;;7.75;6.97;;;15.50;70.80;;;;;;2270760;62;30313;-77
2022/03/25 11:40:12;;;;;;;8.18;7.38;;;15.60;70.80;;;;;;2270355;62;30393;-78
2022/03/25 11:42:40;;;;;;;7.45;6.15;;;15.60;70.70;;;;;;2284704;62;31158;-77
2022/03/25 11:45:35;;;;;;;7.38;6.68;;;15.60;70.70;;;;;;2277310;62;30299;-78
2022/03/25 11:48:04;;;;;;;7.30;6.20;;;15.70;70.60;;;;;;2284696;62;30230;-77
2022/03/25 11:50:36;;;;;;;7.03;6.22;;;15.70;70.60;;;;;;2284767;62;30308;-77
2022/03/25 11:53:11;;;;;;;6.72;6.07;;;15.80;70.60;;;;;;2277093;62;30240;-77
2022/03/25 11:55:53;;;;;;;6.80;6.10;;;15.80;70.50;;;;;;2284771;62;30684;-78
2022/03/25 11:58:19;;;;;;;6.03;5.43;;;15.90;70.40;;;;;;2284678;62;30185;-77
2022/03/25 12:00:48;;;;;;;5.75;5.25;;;15.90;70.40;;;;;;2284383;62;30207;-77
2022/03/25 12:03:19;;;;;;;5.97;5.38;;;15.90;70.40;;;;;;2271179;62;30475;-77
2022/03/25 12:05:58;;;;;;;7.00;6.05;;;16.00;70.30;;;;;;2270645;62;30396;-77
2022/03/25 12:08:28;;;;;;;5.68;5.18;;;16.00;70.10;;;;;;2263464;62;30165;-77
2022/03/25 12:10:54;;;;;;;5.95;5.40;;;16.10;70.20;;;;;;2270626;62;30179;-77
2022/03/25 12:13:21;;;;;;;6.10;5.60;;;16.10;70.10;;;;;;2277109;62;30134;-77
2022/03/25 12:15:54;;;;;;;6.20;5.60;;;16.10;70.00;;;;;;2284316;62;30600;-77
2022/03/25 12:18:44;;;;;;;6.07;5.45;;;16.20;70.00;;;;;;2277403;62;30239;-78
2022/03/25 12:21:11;;;;;;;6.03;5.43;;;16.20;69.70;;;;;;2284312;62;30152;-78
2022/03/25 12:23:39;;;;;;;6.68;5.47;;;16.30;69.80;;;;;;2277115;62;30129;-78
2022/03/25 12:26:05;;;;;;;5.97;5.15;;;16.40;69.80;;;;;;2284382;62;30771;-77
2022/03/25 12:28:31;;;;;;;5.40;4.80;;;16.40;69.70;;;;;;2284208;62;30458;-77
2022/03/25 12:31:02;;;;;;;5.57;5.07;;;16.40;69.60;;;;;;2284463;62;30314;-78
2022/03/25 12:33:28;;;;;;;5.90;5.25;;;16.50;69.60;;;;;;2276995;62;31248;-78
2022/03/25 12:35:55;;;;;;;5.82;5.18;;;16.50;69.50;;;;;;2276695;62;30668;-78
2022/03/25 12:38:24;;;;;;;5.75;5.15;;;16.60;69.50;;;;;;2277075;62;30546;-78
2022/03/25 12:40:51;;;;;;;5.95;5.35;;;16.70;69.50;;;;;;2277031;62;30291;-78
2022/03/25 12:43:17;;;;;;;5.72;5.22;;;16.70;69.40;;;;;;2276678;62;31014;-78
2022/03/25 12:45:45;;;;;;;6.45;5.78;;;16.70;69.30;;;;;;2270108;62;30337;-77
2022/03/25 12:48:18;;;;;;;5.33;4.80;;;16.90;69.30;;;;;;2284431;62;30157;-78
2022/03/25 12:50:49;;;;;;;5.55;5.00;;;16.90;69.10;;;;;;2270012;62;30072;-78
2022/03/25 12:53:15;;;;;;;5.75;5.20;;;16.90;69.20;;;;;;2277823;62;31158;-77
2022/03/25 12:55:41;;;;;;;5.43;4.93;;;17.00;69.10;;;;;;2277162;62;30028;-78
2022/03/25 12:58:17;;;;;;;5.55;5.05;;;17.00;69.10;;;;;;2276785;62;30346;-78
2022/03/25 13:00:47;;;;;;;5.45;4.95;;;17.10;68.80;;;;;;2284986;62;30426;-77
2022/03/25 13:03:13;;;;;;;5.60;5.10;;;17.20;68.80;;;;;;2277992;62;30241;-78
2022/03/25 13:05:39;;;;;;;5.85;4.93;;;17.20;68.70;;;;;;2278162;62;30607;-78
2022/03/25 13:08:06;;;;;;;5.22;4.72;;;17.30;68.60;;;;;;2278325;62;30365;-78
2022/03/25 13:10:32;;;;;;;5.75;5.10;;;17.30;68.50;;;;;;2277947;62;30680;-77
2022/03/25 13:13:02;;;;;;;5.22;4.72;;;17.40;68.40;;;;;;2278028;62;30862;-78
2022/03/25 13:15:33;;;;;;;6.30;4.68;;;17.50;68.00;;;;;;2271458;62;30711;-78
2022/03/25 13:18:04;;;;;;;5.22;4.72;;;17.50;68.10;;;;;;2278091;62;30389;-78
2022/03/25 13:20:34;;;;;;;4.90;4.50;;;17.60;68.00;;;;;;2285510;62;30353;-78
2022/03/25 13:23:06;;;;;;;5.38;4.78;;;17.70;68.40;;;;;;2285517;62;30157;-78
2022/03/25 13:25:40;;;;;;;5.25;4.70;;;17.70;68.10;;;;;;2285274;62;30993;-78
2022/03/25 13:28:16;;;;;;;5.15;4.70;;;17.80;68.00;;;;;;2285518;62;30302;-78
2022/03/25 13:30:44;;;;;;;4.88;4.47;;;17.90;67.80;;;;;;2271326;62;30316;-78
2022/03/25 13:33:11;;;;;;;5.15;4.75;;;18.00;68.20;;;;;;2277865;62;30141;-77
2022/03/25 13:36:00;;;;;;;5.22;4.72;;;18.00;67.60;;;;;;2271271;62;30740;-78
2022/03/25 13:38:27;;;;;;;6.22;5.07;;;18.10;67.00;;;;;;2279017;62;30362;-78
2022/03/25 13:40:54;;;;;;;4.78;4.40;;;18.20;67.00;;;;;;2278132;62;29977;-78
2022/03/25 13:43:23;;;;;;;5.32;4.82;;;18.20;66.90;;;;;;2285539;62;30899;-78
2022/03/25 13:46:04;;;;;;;4.80;4.40;;;18.30;66.80;;;;;;2278635;62;30583;-78
2022/03/25 13:48:46;;;;;;;5.10;4.60;;;18.40;67.00;;;;;;2285397;62;30099;-78
2022/03/25 13:51:28;;;;;;;5.43;4.72;;;18.50;66.70;;;;;;2277916;62;30196;-78
2022/03/25 13:54:08;;;;;;;4.85;4.45;;;18.60;66.90;;;;;;2271358;62;30217;-78
2022/03/25 13:56:51;;;;;;;4.88;4.40;;;18.70;66.70;;;;;;2285298;62;30382;-78
2022/03/25 13:59:35;;;;;;;5.60;5.10;;;18.80;66.70;;;;;;2278734;62;30512;-77
2022/03/25 14:02:04;;;;;;;5.00;4.60;;;18.90;66.50;;;;;;2277882;62;30412;-78
2022/03/25 14:04:31;;;;;;;5.13;4.65;;;19.00;66.70;;;;;;2277790;62;31212;-78
2022/03/25 14:06:59;;;;;;;5.30;4.80;;;19.10;66.50;;;;;;2277655;62;30279;-78
2022/03/25 14:09:32;;;;;;;4.88;4.38;;;19.20;66.30;;;;;;2271170;62;30205;-78
2022/03/25 14:12:15;;;;;;;5.57;5.07;;;19.30;65.90;;;;;;2277743;62;29993;-77
2022/03/25 14:14:52;;;;;;;4.82;4.43;;;19.40;65.50;;;;;;2284897;62;30607;-78
2022/03/25 14:17:20;;;;;;;5.20;4.70;;;19.50;65.70;;;;;;2285410;62;30785;-78
2022/03/25 14:19:46;;;;;;;5.55;5.05;;;19.60;65.50;;;;;;2277832;62;30255;-78
2022/03/25 14:22:12;;;;;;;5.60;5.10;;;20.00;65.00;;;;;;2277510;62;30223;-77
2022/03/25 14:24:38;;;;;;;4.93;4.53;;;20.80;63.70;;;;;;2285163;62;30886;-77
2022/03/25 14:27:11;;;;;;;5.38;4.88;;;21.80;61.90;;;;;;2285101;62;30777;-78
2022/03/25 14:29:38;;;;;;;;;;;22.60;59.80;;;;;;2285428;62;30280;-78
2022/03/25 14:32:04;;;;;;;5.15;4.65;;;23.30;58.30;;;;;;2284800;62;30530;-78
2022/03/25 14:34:30;;;;;;;5.18;4.70;;;23.70;58.30;;;;;;2278378;62;30221;-79
2022/03/25 14:36:56;;;;;;;5.28;4.78;;;23.60;57.90;;;;;;2280390;62;30815;-78
2022/03/25 14:39:22;;;;;;;8.90;5.22;;;24.20;57.30;;;;;;2285035;62;30254;-77
2022/03/25 14:41:48;;;;;;;6.85;5.30;;;24.10;56.20;;;;;;2284832;62;30037;-81
2022/03/25 14:44:17;;;;;;;22.92;15.95;;;23.50;55.90;;;;;;2271200;62;31046;-78
2022/03/25 14:46:47;;;;;;;23.17;15.95;;;22.70;52.80;;;;;;2277525;62;30271;-79
2022/03/25 14:49:13;;;;;;;25.58;15.75;;;22.00;52.10;;;;;;2284124;62;30386;-82
2022/03/25 14:51:39;;;;;;;26.13;15.65;;;21.40;51.80;;;;;;2284235;62;30043;-84
2022/03/25 14:54:05;;;;;;;26.92;15.32;;;20.90;52.40;;;;;;2270773;62;30835;-86
2022/03/25 14:56:32;;;;;;;31.40;17.48;;;20.50;52.60;;;;;;2276658;62;30485;-78
2022/03/25 14:59:01;;;;;;;27.48;16.83;;;20.30;52.40;;;;;;2284841;62;29926;-79
2022/03/25 15:01:27;;;;;;;26.77;17.27;;;20.10;52.80;;;;;;2277640;62;30249;-81
2022/03/25 15:03:56;;;;;;;25.90;17.42;;;19.80;51.90;;;;;;2284543;62;30381;-80
2022/03/25 15:06:22;;;;;;;30.63;17.00;;;19.50;52.10;;;;;;2284740;62;30464;-85
2022/03/25 15:08:48;;;;;;;32.78;17.00;;;19.30;52.50;;;;;;2270609;62;30129;-79
2022/03/25 15:11:14;;;;;;;30.67;17.67;;;19.20;52.80;;;;;;2284577;62;30133;-75
2022/03/25 15:13:40;;;;;;;24.80;17.52;;;19.10;53.80;;;;;;2276861;62;30117;-76
2022/03/25 15:16:07;;;;;;;24.17;16.17;;;19.00;54.60;;;;;;2270407;62;30815;-76
2022/03/25 15:18:34;;;;;;;25.55;13.32;;;18.90;55.00;;;;;;2284353;62;30277;-76
2022/03/25 15:21:04;;;;;;;21.70;13.15;;;18.80;54.60;;;;;;2277394;62;30153;-76
2022/03/25 15:23:30;;;;;;;22.98;12.77;;;18.70;54.30;;;;;;2284154;62;32130;-80
2022/03/25 15:25:56;;;;;;;17.38;10.15;;;18.70;55.50;;;;;;2278762;62;31206;-77
2022/03/25 15:28:26;;;;;;;19.17;11.05;;;18.70;55.90;;;;;;2290024;62;30152;-78
2022/03/25 15:36:24;;;;;;;19.55;10.88;;;18.70;55.40;;;;;;2284592;62;30694;-77
2022/03/25 15:38:50;;;;;;;16.13;10.70;;;18.60;55.10;;;;;;2284387;62;30647;-77
2022/03/25 15:41:16;;;;;;;17.23;10.60;;;18.60;55.00;;;;;;2276688;62;30163;-74
2022/03/25 15:43:45;;;;;;;16.40;10.50;;;18.60;54.80;;;;;;2284163;62;32190;-75
2022/03/25 15:46:12;;;;;;;14.13;10.70;;;18.60;54.80;;;;;;2284005;62;30521;-74
2022/03/25 15:48:38;;;;;;;23.25;11.63;;;18.50;54.60;;;;;;2284182;62;30159;-76
2022/03/25 15:51:04;;;;;;;15.65;10.52;;;18.50;54.20;;;;;;2284213;62;30141;-74
2022/03/25 15:53:30;;;;;;;17.92;10.20;;;18.50;54.50;;;;;;2276688;62;31931;-74
2022/03/25 15:55:57;;;;;;;16.70;10.93;;;18.50;55.00;;;;;;2284510;62;30509;-74
2022/03/25 15:58:22;;;;;;;15.73;9.65;;;18.40;55.70;;;;;;2284505;62;30196;-74
2022/03/25 16:00:48;;;;;;;15.10;10.05;;;18.40;56.30;;;;;;2283997;62;30451;-74
2022/03/25 16:03:14;;;;;;;14.15;9.10;;;18.40;56.10;;;;;;2284358;62;31181;-75
2022/03/25 16:05:48;;;;;;;14.40;9.65;;;18.40;56.30;;;;;;2284150;62;30200;-74
2022/03/25 16:08:14;;;;;;;20.25;8.95;;;18.40;56.00;;;;;;2284391;62;30751;-78
2022/03/25 16:10:40;;;;;;;13.60;9.07;;;18.40;56.40;;;;;;2284308;62;30345;-76
2022/03/25 16:13:06;;;;;;;11.93;8.95;;;18.40;56.50;;;;;;2283437;62;30920;-76
2022/03/25 16:15:32;;;;;;;13.68;8.48;;;18.40;56.50;;;;;;2284098;62;30569;-78
2022/03/25 16:17:58;;;;;;;12.90;8.73;;;18.40;56.10;;;;;;2277967;62;30251;-76
2022/03/25 16:20:25;;;;;;;12.63;8.05;;;18.40;55.60;;;;;;2283799;62;30264;-76
2022/03/25 16:22:51;;;;;;;10.77;7.63;;;18.50;55.60;;;;;;2284124;62;30170;-78
2022/03/25 16:25:17;;;;;;;9.93;7.38;;;18.50;54.80;;;;;;2284275;62;30285;-77
2022/03/25 16:27:43;;;;;;;9.77;7.70;;;18.50;54.70;;;;;;2276740;62;30000;-76
2022/03/25 16:30:14;;;;;;;13.15;8.02;;;18.40;54.60;;;;;;2277188;62;30307;-76
2022/03/25 16:32:40;;;;;;;11.93;7.85;;;18.40;54.20;;;;;;2270077;62;31228;-77
2022/03/25 16:35:07;;;;;;;11.38;8.10;;;18.40;54.30;;;;;;2284316;62;31161;-78
2022/03/25 16:37:33;;;;;;;11.95;8.13;;;18.30;54.20;;;;;;2278276;62;30392;-75
2022/03/25 16:40:01;;;;;;;13.85;8.15;;;18.30;54.30;;;;;;2285462;62;30151;-75
2022/03/25 16:42:27;;;;;;;10.82;7.95;;;18.30;54.20;;;;;;2277937;62;31925;-78
2022/03/25 16:44:53;;;;;;;12.10;9.13;;;18.20;54.00;;;;;;2278272;62;30195;-74
2022/03/25 16:47:21;;;;;;;10.80;8.05;;;18.20;53.90;;;;;;2278293;62;30037;-75
2022/03/25 16:49:48;;;;;;;9.77;7.60;;;18.20;54.00;;;;;;2271454;62;30398;-75
2022/03/25 16:52:14;;;;;;;10.98;7.53;;;18.20;54.00;;;;;;2285531;62;30304;-77
2022/03/25 16:54:41;;;;;;;11.43;8.23;;;18.20;54.00;;;;;;2285394;62;30225;-76
2022/03/25 16:57:07;;;;;;;10.23;7.60;;;18.10;53.80;;;;;;2277937;62;30730;-75
2022/03/25 16:59:33;;;;;;;12.63;8.52;;;18.10;53.90;;;;;;2278088;62;30449;-74
2022/03/25 17:01:59;;;;;;;15.55;8.55;;;18.10;53.70;;;;;;2278121;62;30096;-76
2022/03/25 17:04:25;;;;;;;11.55;8.30;;;18.00;53.90;;;;;;2285529;62;30492;-77
2022/03/25 17:06:50;;;;;;;12.75;8.10;;;18.00;53.70;;;;;;2278469;62;30320;-76
2022/03/25 17:09:16;;;;;;;21.85;8.82;;;18.00;53.90;;;;;;2288040;62;30093;-77
2022/03/25 17:11:42;;;;;;;11.10;6.95;;;18.00;54.70;;;;;;2286581;62;31236;-77
2022/03/25 17:14:08;;;;;;;9.82;6.45;;;18.00;55.40;;;;;;2283924;62;30634;-77
2022/03/25 17:16:34;;;;;;;9.82;6.38;;;18.00;55.80;;;;;;2283689;62;30238;-78
2022/03/25 17:19:00;;;;;;;8.32;6.00;;;18.00;56.20;;;;;;2275273;62;30532;-77
2022/03/25 17:21:26;;;;;;;9.18;6.65;;;18.10;56.30;;;;;;2283112;62;32759;-76
2022/03/25 17:23:55;;;;;;;9.35;6.47;;;18.00;56.60;;;;;;2275380;62;31249;-77
2022/03/25 17:26:20;;;;;;;9.70;6.25;;;18.00;57.30;;;;;;2283181;62;30222;-76
2022/03/25 17:28:49;;;;;;;7.68;6.07;;;18.00;57.30;;;;;;2284121;62;30573;-77
2022/03/25 17:31:16;;;;;;;7.63;6.28;;;18.00;57.70;;;;;;2283684;62;30980;-77
2022/03/25 17:33:42;;;;;;;11.43;6.13;;;17.90;57.60;;;;;;2284133;62;30646;-77
2022/03/25 17:36:09;;;;;;;9.20;6.82;;;18.00;57.90;;;;;;2283391;62;30187;-78
2022/03/25 17:38:37;;;;;;;8.82;6.05;;;17.90;58.00;;;;;;2255007;62;30074;-77
2022/03/25 17:41:02;;;;;;;8.80;6.47;;;17.90;58.20;;;;;;2276707;62;31287;-77
2022/03/25 17:43:28;;;;;;;6.85;5.97;;;17.90;58.40;;;;;;2276602;62;30297;-78
2022/03/25 17:45:55;;;;;;;7.15;6.35;;;17.80;58.60;;;;;;2283847;62;30757;-77
2022/03/25 17:48:26;;;;;;;8.65;6.40;;;17.80;58.90;;;;;;2276803;62;30113;-77
2022/03/25 17:50:59;;;;;;;7.13;6.43;;;17.80;59.00;;;;;;2270829;62;31627;-77
2022/03/25 17:53:26;;;;;;;14.38;7.32;;;17.80;59.20;;;;;;2284032;62;30147;-76
2022/03/25 17:55:52;;;;;;;10.65;7.60;;;17.80;59.40;;;;;;2276802;62;30595;-75
2022/03/25 17:58:20;;;;;;;9.25;7.75;;;17.70;59.40;;;;;;2283705;62;30210;-75
2022/03/25 18:00:48;;;;;;;29.33;10.20;;;17.70;59.60;;;;;;2283674;62;30836;-78
2022/03/25 18:03:14;;;;;;;19.63;14.43;;;17.70;59.40;;;;;;2274555;62;30424;-78
2022/03/25 18:05:41;;;;;;;19.00;13.75;;;17.70;58.00;;;;;;2267931;62;30379;-78
2022/03/25 18:08:10;;;;;;;15.60;10.80;;;17.60;58.10;;;;;;2278839;62;30182;-76
2022/03/25 18:10:37;;;;;;;19.55;10.27;;;17.60;58.80;;;;;;2276383;62;31251;-78
2022/03/25 18:13:04;;;;;;;12.55;9.02;;;17.60;59.20;;;;;;2266016;62;30110;-76
2022/03/25 18:15:30;;;;;;;19.67;9.43;;;17.60;59.80;;;;;;2284942;62;30284;-78
2022/03/25 18:17:55;;;;;;;14.68;10.43;;;17.60;60.10;;;;;;2277689;62;30541;-79
2022/03/25 18:20:24;;;;;;;12.27;9.20;;;17.70;60.40;;;;;;2277379;62;31005;-79
2022/03/25 18:22:50;;;;;;;15.15;11.23;;;17.70;60.50;;;;;;2284940;62;31251;-77
2022/03/25 18:25:16;;;;;;;15.68;11.02;;;17.70;60.80;;;;;;2277523;62;30349;-78
2022/03/25 18:27:41;;;;;;;14.60;11.55;;;17.70;61.10;;;;;;2284547;62;30136;-79
2022/03/25 18:30:14;;;;;;;15.38;10.85;;;17.70;61.30;;;;;;2284833;62;30138;-78
2022/03/25 18:32:42;;;;;;;16.05;10.63;;;17.70;61.40;;;;;;2283377;62;31304;-76
2022/03/25 18:35:08;;;;;;;14.55;10.70;;;17.70;61.40;;;;;;2274154;62;30237;-79
2022/03/25 18:37:35;;;;;;;17.05;10.90;;;17.70;62.30;;;;;;2284589;62;30215;-78
2022/03/25 18:40:01;;;;;;;14.38;11.13;;;17.70;61.60;;;;;;2277463;62;31986;-79
2022/03/25 18:42:26;;;;;;;15.18;12.00;;;17.70;61.70;;;;;;2277218;62;30060;-76
2022/03/25 18:44:52;;;;;;;21.90;11.55;;;17.70;61.90;;;;;;2284618;62;30250;-85
2022/03/25 18:47:18;;;;;;;14.85;10.73;;;17.70;62.00;;;;;;2284775;62;30030;-90
2022/03/25 18:49:44;;;;;;;16.23;11.25;;;17.70;62.10;;;;;;2284934;62;30083;-78
2022/03/25 18:52:11;;;;;;;14.85;10.73;;;17.70;62.10;;;;;;2284792;62;30994;-78
2022/03/25 18:54:39;;;;;;;13.60;11.65;;;17.70;62.40;;;;;;2290099;62;30125;-77
2022/03/25 18:57:08;;;;;;;15.50;10.90;;;17.60;62.50;;;;;;2283983;62;30350;-78
2022/03/25 18:59:35;;;;;;;17.65;11.48;;;17.60;62.70;;;;;;2277351;62;31164;-77
2022/03/25 19:02:01;;;;;;;12.95;10.70;;;17.50;62.80;;;;;;2284274;62;30618;-78
2022/03/25 19:04:26;;;;;;;14.82;12.20;;;17.50;63.00;;;;;;2284473;62;30216;-77
2022/03/25 19:06:52;;;;;;;16.65;11.93;;;17.50;63.20;;;;;;2277134;62;30012;-78
2022/03/25 19:09:20;;;;;;;14.15;11.32;;;17.50;63.30;;;;;;2284472;62;30984;-78
2022/03/25 19:11:46;;;;;;;15.52;11.43;;;17.40;63.50;;;;;;2284636;62;30592;-78
2022/03/25 19:14:14;;;;;;;15.07;12.38;;;17.40;63.50;;;;;;2277062;62;30233;-78
2022/03/25 19:16:40;;;;;;;17.08;13.13;;;17.40;63.60;;;;;;2284225;62;30203;-78
2022/03/25 19:19:07;;;;;;;18.83;14.13;;;17.40;63.80;;;;;;2277280;62;30866;-78
2022/03/25 19:21:33;;;;;;;16.45;13.48;;;17.40;64.00;;;;;;2276911;62;30813;-78
2022/03/25 19:24:03;;;;;;;15.13;13.52;;;17.40;64.10;;;;;;2284170;62;30064;-78
2022/03/25 19:26:30;;;;;;;18.88;14.40;;;17.30;64.30;;;;;;2277286;62;31373;-78
2022/03/25 19:28:59;;;;;;;17.13;13.70;;;17.30;64.30;;;;;;2284456;62;31117;-78
2022/03/25 19:31:27;;;;;;;18.77;14.75;;;17.40;65.20;;;;;;2284297;62;30185;-78
2022/03/25 19:33:55;;;;;;;17.33;13.55;;;17.30;64.60;;;;;;2277255;62;30678;-76
2022/03/25 19:36:21;;;;;;;18.48;14.52;;;17.30;64.70;;;;;;2268351;62;31064;-77
2022/03/25 19:38:49;;;;;;;18.85;15.85;;;17.30;64.80;;;;;;2276597;62;30123;-76
2022/03/25 19:41:15;;;;;;;17.33;14.48;;;17.30;64.80;;;;;;2284574;62;33851;-76
2022/03/25 19:43:41;;;;;;;19.42;15.70;;;17.20;64.90;;;;;;2277348;62;30404;-77
2022/03/25 19:46:07;;;;;;;19.73;16.70;;;17.20;65.00;;;;;;2289625;62;30609;-76
2022/03/25 19:48:39;;;;;;;19.58;15.93;;;17.20;65.20;;;;;;2277577;62;31391;-76
2022/03/25 19:51:06;;;;;;;19.35;15.10;;;17.20;65.20;;;;;;2284166;62;30639;-76
2022/03/25 19:53:34;;;;;;;20.98;16.60;;;17.20;65.30;;;;;;2277052;62;30157;-77
2022/03/25 19:56:00;;;;;;;18.73;16.02;;;17.20;65.40;;;;;;2284280;62;30312;-77
2022/03/25 19:58:31;;;;;;;19.60;16.42;;;17.20;65.40;;;;;;2283899;62;31237;-77
2022/03/25 20:00:57;;;;;;;21.02;17.00;;;17.10;65.40;;;;;;2284127;62;30313;-79
2022/03/25 20:03:24;;;;;;;19.73;16.88;;;17.10;65.50;;;;;;2284197;62;30216;-80
2022/03/25 20:05:50;;;;;;;22.33;17.63;;;17.10;65.60;;;;;;2284039;62;30191;-73
2022/03/25 20:08:16;;;;;;;21.45;16.70;;;17.10;65.70;;;;;;2277597;62;30107;-76
2022/03/25 20:10:42;;;;;;;28.58;16.77;;;17.10;65.70;;;;;;2279319;62;30381;-80
2022/03/25 20:13:11;;;;;;;22.08;16.83;;;17.10;65.70;;;;;;2272231;62;31484;-80
2022/03/25 20:15:39;;;;;;;17.92;15.90;;;17.10;65.70;;;;;;2272248;62;33370;-80
2022/03/25 20:18:05;;;;;;;18.35;16.08;;;17.10;65.70;;;;;;2282266;62;32537;-80
2022/03/25 20:20:31;;;;;;;18.77;16.15;;;17.10;65.80;;;;;;2272291;62;30445;-81
2022/03/25 20:22:57;;;;;;;22.15;16.75;;;17.10;65.80;;;;;;2275478;62;32433;-81
2022/03/25 20:25:25;;;;;;;17.10;15.18;;;17.10;65.80;;;;;;2283058;62;30177;-82
2022/03/25 20:27:52;;;;;;;16.33;14.25;;;17.10;65.80;;;;;;2281946;62;33772;-81
2022/03/25 20:30:18;;;;;;;18.65;15.38;;;17.20;65.80;;;;;;2283160;62;30820;-82
2022/03/25 20:32:44;;;;;;;20.45;16.25;;;17.20;65.90;;;;;;2283128;62;30087;-81
2022/03/25 20:35:20;;;;;;;18.88;16.08;;;17.20;65.90;;;;;;2282861;62;30276;-81
2022/03/25 20:37:46;;;;;;;18.10;15.02;;;17.20;65.80;;;;;;2277648;62;30358;-83
2022/03/25 20:40:12;;;;;;;17.75;15.65;;;17.20;65.90;;;;;;2282339;62;30264;-83
2022/03/25 20:42:38;;;;;;;18.73;16.45;;;17.20;65.90;;;;;;2275803;62;30234;-83
2022/03/25 20:45:05;;;;;;;19.08;16.48;;;17.20;66.00;;;;;;2268783;62;30436;-82
2022/03/25 20:47:31;;;;;;;19.70;15.73;;;17.20;66.00;;;;;;2275707;62;30195;-81
2022/03/25 20:49:57;;;;;;;18.02;16.05;;;17.20;66.10;;;;;;2274763;62;31561;-83
2022/03/25 20:52:28;;;;;;;21.17;16.75;;;17.10;66.00;;;;;;2274946;62;30476;-81
2022/03/25 20:54:54;;;;;;;18.60;16.03;;;17.10;66.10;;;;;;2282834;62;30245;-82
2022/03/25 20:57:20;;;;;;;19.05;16.08;;;17.10;66.00;;;;;;2282880;62;30023;-82
2022/03/25 20:59:46;;;;;;;19.75;17.33;;;17.10;66.10;;;;;;2282663;62;29986;-81
2022/03/25 21:02:12;;;;;;;22.13;18.55;;;17.10;66.20;;;;;;2275218;62;30196;-81
2022/03/25 21:04:38;;;;;;;21.52;19.05;;;17.10;66.20;;;;;;2283032;62;30401;-81
2022/03/25 21:07:06;;;;;;;24.20;20.60;;;17.10;66.20;;;;;;2282744;62;31292;-80